Time;durP1;ratioP1;P1;durP2;ratioP2;P2;SDS_P1;SDS_P2;PMS_P1;PMS_P2;Temp;Humidity;BMP_temperature;BMP_pressure;BME280_temperature;BME280_humidity;BME280_pressure;Samples;Min_cycle;Max_cycle;Signal;HPM_P1;HPM_P2
2023/04/23 00:00:29;;;;;;;87.35;50.15;;;11.10;99.90;;;;;;5036584;28;20041;-69
2023/04/23 00:02:57;;;;;;;86.50;49.28;;;11.10;99.90;;;;;;5036764;28;20378;-67
2023/04/23 00:05:26;;;;;;;86.43;48.78;;;11.10;99.90;;;;;;5036862;28;20116;-67
2023/04/23 00:07:53;;;;;;;92.05;49.78;;;11.00;99.90;;;;;;5036961;28;20060;-67
2023/04/23 00:10:19;;;;;;;90.18;49.78;;;11.00;99.90;;;;;;5036316;28;20060;-67
2023/04/23 00:12:44;;;;;;;86.82;49.08;;;11.00;99.90;;;;;;5036353;28;20392;-67
2023/04/23 00:15:12;;;;;;;90.20;49.00;;;11.00;99.90;;;;;;5036478;28;20030;-68
2023/04/23 00:17:37;;;;;;;86.97;48.47;;;10.90;99.90;;;;;;5036071;28;20487;-67
2023/04/23 00:20:03;;;;;;;84.93;46.83;;;10.90;99.90;;;;;;5036705;28;20029;-67
2023/04/23 00:22:29;;;;;;;90.35;49.17;;;10.90;99.90;;;;;;5035819;28;20037;-67
2023/04/23 00:24:54;;;;;;;89.70;48.85;;;10.90;99.90;;;;;;5036616;28;20033;-67
2023/04/23 00:27:20;;;;;;;87.03;49.15;;;10.80;99.90;;;;;;5035681;28;20022;-67
2023/04/23 00:29:46;;;;;;;80.20;46.83;;;10.80;99.90;;;;;;5036572;28;20033;-67
2023/04/23 00:32:13;;;;;;;84.05;46.80;;;10.80;99.90;;;;;;5035716;28;20044;-67
2023/04/23 00:34:39;;;;;;;88.03;48.03;;;10.70;99.90;;;;;;5036404;28;20033;-67
2023/04/23 00:37:05;;;;;;;83.88;46.63;;;10.70;99.90;;;;;;5036343;28;20025;-67
2023/04/23 00:39:31;;;;;;;82.95;45.38;;;10.70;99.90;;;;;;5035885;28;20025;-68
2023/04/23 00:41:59;;;;;;;80.10;46.05;;;10.60;99.90;;;;;;5035370;28;20080;-67
2023/04/23 00:44:24;;;;;;;78.13;44.40;;;10.50;99.90;;;;;;5035823;28;20025;-68
2023/04/23 00:46:52;;;;;;;78.65;45.75;;;10.50;99.90;;;;;;5035896;28;20377;-67
2023/04/23 00:49:18;;;;;;;83.00;45.88;;;10.50;99.90;;;;;;5036053;28;20056;-67
2023/04/23 00:51:43;;;;;;;75.82;42.92;;;10.40;99.90;;;;;;5036063;28;20064;-67
2023/04/23 00:54:09;;;;;;;80.72;44.58;;;10.40;99.90;;;;;;5035908;28;20022;-67
2023/04/23 00:56:35;;;;;;;82.75;44.60;;;10.40;99.90;;;;;;5035902;28;20036;-67
2023/04/23 00:59:02;;;;;;;80.05;44.20;;;10.30;99.90;;;;;;5035629;28;20033;-67
2023/04/23 01:01:29;;;;;;;83.18;45.25;;;10.30;99.90;;;;;;5035489;28;20033;-67
2023/04/23 01:03:55;;;;;;;77.43;43.22;;;10.30;99.90;;;;;;5035545;28;20107;-68
2023/04/23 01:06:23;;;;;;;83.47;44.80;;;10.20;99.90;;;;;;5035531;28;20021;-68
2023/04/23 01:08:49;;;;;;;86.45;45.65;;;10.20;99.90;;;;;;5035807;28;20116;-67
2023/04/23 01:11:15;;;;;;;83.28;44.58;;;10.20;99.90;;;;;;5035382;28;20076;-67
2023/04/23 01:13:42;;;;;;;80.00;44.30;;;10.20;99.90;;;;;;5035201;28;20053;-67
2023/04/23 01:16:08;;;;;;;81.15;45.38;;;10.10;99.90;;;;;;5035698;28;20030;-67
2023/04/23 01:18:34;;;;;;;80.68;44.05;;;10.10;99.90;;;;;;5034898;28;20022;-67
2023/04/23 01:21:00;;;;;;;80.03;44.42;;;10.10;99.90;;;;;;5035399;28;20037;-68
2023/04/23 01:23:26;;;;;;;76.07;42.83;;;10.10;99.90;;;;;;5035237;28;20534;-67
2023/04/23 01:25:53;;;;;;;86.30;46.08;;;10.10;99.90;;;;;;5035383;28;20026;-67
2023/04/23 01:28:19;;;;;;;83.03;43.70;;;10.00;99.90;;;;;;5034974;28;20115;-67
2023/04/23 01:30:46;;;;;;;87.72;46.47;;;10.10;99.90;;;;;;5035317;28;20022;-67
2023/04/23 01:33:12;;;;;;;82.90;45.20;;;10.00;99.90;;;;;;5034637;28;20034;-67
2023/04/23 01:35:40;;;;;;;86.28;45.95;;;10.00;99.90;;;;;;5034630;28;20390;-67
2023/04/23 01:38:09;;;;;;;85.38;45.50;;;10.00;99.90;;;;;;5034920;28;20037;-67
2023/04/23 01:40:34;;;;;;;88.75;46.47;;;10.00;99.90;;;;;;5034896;28;20033;-67
2023/04/23 01:43:00;;;;;;;92.72;46.92;;;10.00;99.90;;;;;;5034307;28;20033;-68
2023/04/23 01:45:26;;;;;;;93.10;47.10;;;9.90;99.90;;;;;;5034780;28;20052;-67
2023/04/23 01:47:52;;;;;;;91.03;48.00;;;9.90;99.90;;;;;;5034637;28;20463;-67
2023/04/23 01:50:18;;;;;;;89.60;47.35;;;9.90;99.90;;;;;;5035012;28;20171;-67
2023/04/23 01:52:44;;;;;;;93.97;48.38;;;9.80;99.90;;;;;;5034926;28;20538;-67
2023/04/23 01:55:10;;;;;;;87.88;47.00;;;9.80;99.90;;;;;;5034569;28;20490;-68
2023/04/23 01:57:36;;;;;;;99.45;49.50;;;9.80;99.90;;;;;;5034831;28;20021;-68
2023/04/23 02:00:10;;;;;;;86.22;46.35;;;9.80;99.90;;;;;;5033954;28;20471;-67
2023/04/23 02:02:36;;;;;;;96.07;49.15;;;9.80;99.90;;;;;;5034278;28;20527;-67
2023/04/23 02:05:03;;;;;;;99.70;51.63;;;9.80;99.90;;;;;;5034397;28;20029;-68
2023/04/23 02:07:31;;;;;;;99.43;50.15;;;9.80;99.90;;;;;;5034263;28;20033;-68
2023/04/23 02:09:56;;;;;;;94.85;48.28;;;9.80;99.90;;;;;;5034559;28;20021;-67
2023/04/23 02:12:22;;;;;;;102.00;49.05;;;9.80;99.90;;;;;;5033675;28;20116;-68
2023/04/23 02:14:48;;;;;;;92.32;49.13;;;9.80;99.90;;;;;;5034567;28;20061;-67
2023/04/23 02:17:13;;;;;;;103.63;50.47;;;9.80;99.90;;;;;;5034502;28;20037;-67
2023/04/23 02:19:39;;;;;;;102.20;49.42;;;9.70;99.90;;;;;;5034214;28;20080;-67
2023/04/23 02:22:06;;;;;;;91.75;47.17;;;9.70;99.90;;;;;;5034290;28;20080;-68
2023/04/23 02:24:32;;;;;;;94.97;48.10;;;9.70;99.90;;;;;;5033834;28;20029;-68
2023/04/23 02:26:57;;;;;;;103.53;51.72;;;9.70;99.90;;;;;;5033859;28;20026;-67
2023/04/23 02:29:23;;;;;;;105.43;52.50;;;9.70;99.90;;;;;;5033522;28;20105;-67
2023/04/23 02:31:48;;;;;;;106.88;52.97;;;9.70;99.90;;;;;;5034140;28;20033;-67
2023/04/23 02:34:14;;;;;;;112.00;53.55;;;9.60;99.90;;;;;;5033210;28;20076;-67
2023/04/23 02:36:40;;;;;;;104.45;50.83;;;9.70;99.90;;;;;;5034248;28;20041;-67
2023/04/23 02:39:05;;;;;;;101.10;50.85;;;9.70;99.90;;;;;;5033580;28;20502;-67
2023/04/23 02:41:31;;;;;;;103.43;50.35;;;9.60;99.90;;;;;;5033250;28;20084;-67
2023/04/23 02:43:57;;;;;;;106.22;51.47;;;9.60;99.90;;;;;;5034206;28;20026;-68
2023/04/23 02:46:22;;;;;;;102.95;51.28;;;9.60;99.90;;;;;;5033471;28;20025;-68
2023/04/23 02:48:48;;;;;;;102.20;51.92;;;9.60;99.90;;;;;;5034149;28;20100;-67
2023/04/23 02:51:14;;;;;;;110.60;52.67;;;9.60;99.90;;;;;;5034196;28;20033;-68
2023/04/23 02:53:39;;;;;;;95.53;48.67;;;9.50;99.90;;;;;;5033829;28;20136;-68
2023/04/23 02:56:06;;;;;;;95.53;48.72;;;9.50;99.90;;;;;;5033819;28;20041;-67
2023/04/23 02:58:31;;;;;;;100.28;50.38;;;9.50;99.90;;;;;;5033638;28;20022;-67
2023/04/23 03:00:57;;;;;;;95.55;49.33;;;9.40;99.90;;;;;;5034023;28;20040;-68
2023/04/23 03:03:25;;;;;;;98.15;48.30;;;9.40;99.90;;;;;;5033977;28;20029;-67
2023/04/23 03:05:51;;;;;;;97.47;48.40;;;9.30;99.90;;;;;;5033659;28;20029;-67
2023/04/23 03:08:16;;;;;;;104.28;50.58;;;9.30;99.90;;;;;;5034013;28;20048;-67
2023/04/23 03:10:42;;;;;;;106.85;51.35;;;9.20;99.90;;;;;;5033766;28;20424;-68
2023/04/23 03:13:08;;;;;;;105.93;51.78;;;9.20;99.90;;;;;;5033339;28;20025;-67
2023/04/23 03:15:33;;;;;;;102.70;48.60;;;9.10;99.90;;;;;;5033589;28;20030;-67
2023/04/23 03:18:00;;;;;;;106.57;51.90;;;9.10;99.90;;;;;;5033739;28;20037;-67
2023/04/23 03:20:26;;;;;;;112.57;53.20;;;9.10;99.90;;;;;;5033371;28;20030;-67
2023/04/23 03:22:52;;;;;;;99.95;49.85;;;9.10;99.90;;;;;;5033595;28;20026;-68
2023/04/23 03:25:19;;;;;;;109.78;52.53;;;9.00;99.90;;;;;;5036872;28;20413;-67
2023/04/23 03:27:44;;;;;;;96.80;47.95;;;9.00;99.90;;;;;;5037423;28;20099;-68
2023/04/23 03:30:10;;;;;;;115.38;54.03;;;9.00;99.90;;;;;;5037561;28;20076;-68
2023/04/23 03:32:37;;;;;;;104.00;49.45;;;9.00;99.90;;;;;;5037645;28;20032;-68
2023/04/23 03:35:03;;;;;;;97.38;49.58;;;9.00;99.90;;;;;;5037075;28;20459;-69
2023/04/23 03:37:28;;;;;;;101.30;49.60;;;9.00;99.90;;;;;;5037436;28;20029;-68
2023/04/23 03:39:54;;;;;;;107.65;52.00;;;9.00;99.90;;;;;;5037462;28;20084;-67
2023/04/23 03:42:19;;;;;;;108.05;52.42;;;9.00;99.90;;;;;;5036107;28;20099;-67
2023/04/23 03:44:45;;;;;;;118.47;56.33;;;9.00;99.90;;;;;;5037064;28;20431;-67
2023/04/23 03:47:10;;;;;;;117.07;55.50;;;9.10;99.90;;;;;;5037333;28;20075;-67
2023/04/23 03:49:37;;;;;;;127.88;58.70;;;9.10;99.90;;;;;;5036778;28;20032;-67
2023/04/23 03:52:03;;;;;;;121.10;55.65;;;9.10;99.90;;;;;;5037203;28;20025;-67
2023/04/23 03:54:28;;;;;;;144.40;64.72;;;9.20;99.90;;;;;;5037153;28;20483;-67
2023/04/23 03:56:54;;;;;;;141.65;63.50;;;9.20;99.90;;;;;;5037189;28;20025;-68
2023/04/23 03:59:19;;;;;;;143.40;64.40;;;9.20;99.90;;;;;;5036474;28;20080;-68
2023/04/23 04:01:47;;;;;;;120.28;55.80;;;9.30;99.90;;;;;;5036856;28;20030;-67
2023/04/23 04:04:13;;;;;;;141.57;62.20;;;9.20;99.90;;;;;;5036457;28;20029;-67
2023/04/23 04:06:39;;;;;;;139.77;62.72;;;9.20;99.90;;;;;;5036633;28;20029;-67
2023/04/23 04:09:06;;;;;;;142.13;63.47;;;9.20;99.90;;;;;;5036463;28;20053;-67
2023/04/23 04:11:32;;;;;;;135.43;60.60;;;9.20;99.90;;;;;;5036496;28;20068;-68
2023/04/23 04:13:58;;;;;;;140.88;61.95;;;9.20;99.90;;;;;;5036257;28;20037;-68
2023/04/23 04:16:23;;;;;;;153.02;64.07;;;9.20;99.90;;;;;;5036414;28;20475;-68
2023/04/23 04:18:49;;;;;;;152.38;65.78;;;9.20;99.90;;;;;;5036761;28;20044;-67
2023/04/23 04:21:16;;;;;;;152.02;66.63;;;9.20;99.90;;;;;;5035653;28;20033;-68
2023/04/23 04:23:42;;;;;;;157.05;67.05;;;9.20;99.90;;;;;;5036699;28;20368;-68
2023/04/23 04:26:08;;;;;;;152.20;64.35;;;9.20;99.90;;;;;;5036332;28;20029;-67
2023/04/23 04:28:35;;;;;;;154.32;64.65;;;9.30;99.90;;;;;;5036570;28;20399;-67
2023/04/23 04:31:01;;;;;;;148.52;63.13;;;9.20;99.90;;;;;;5036114;28;20055;-67
2023/04/23 04:33:28;;;;;;;154.63;66.80;;;9.10;99.90;;;;;;5036272;28;20037;-67
2023/04/23 04:35:54;;;;;;;155.82;65.93;;;9.20;99.90;;;;;;5036069;28;20112;-68
2023/04/23 04:38:20;;;;;;;171.10;68.68;;;9.10;99.90;;;;;;5035684;28;20076;-68
2023/04/23 04:40:47;;;;;;;133.38;58.33;;;9.10;99.90;;;;;;5036052;28;20125;-68
2023/04/23 04:43:15;;;;;;;149.02;61.85;;;9.10;99.90;;;;;;5035948;28;20084;-68
2023/04/23 04:45:41;;;;;;;143.95;63.47;;;9.10;99.90;;;;;;5036004;28;20459;-67
2023/04/23 04:48:07;;;;;;;153.98;65.43;;;9.20;99.90;;;;;;5036160;28;20136;-68
2023/04/23 04:50:32;;;;;;;155.55;66.10;;;9.20;99.90;;;;;;5035809;28;20082;-68
2023/04/23 04:52:59;;;;;;;162.20;66.20;;;9.30;99.90;;;;;;5035882;28;20025;-68
2023/04/23 04:55:26;;;;;;;153.30;67.38;;;9.30;99.90;;;;;;5035861;28;20033;-68
2023/04/23 04:57:52;;;;;;;144.75;64.72;;;9.30;99.90;;;;;;5035973;28;20026;-67
2023/04/23 05:00:23;;;;;;;141.23;62.65;;;9.40;99.90;;;;;;5034690;28;20032;-68
2023/04/23 05:02:51;;;;;;;153.52;65.30;;;9.40;99.90;;;;;;5035150;28;20025;-68
2023/04/23 05:05:17;;;;;;;158.23;66.68;;;9.50;99.90;;;;;;5035273;28;20091;-67
2023/04/23 05:07:43;;;;;;;156.88;65.32;;;9.60;99.90;;;;;;5035830;28;20028;-68
2023/04/23 05:10:09;;;;;;;153.80;67.13;;;9.70;99.90;;;;;;5035448;28;20037;-68
2023/04/23 05:12:34;;;;;;;160.00;67.57;;;9.80;99.90;;;;;;5035691;28;20037;-67
2023/04/23 05:15:00;;;;;;;146.88;65.95;;;10.10;99.90;;;;;;5035374;28;20047;-67
2023/04/23 05:17:25;;;;;;;136.13;63.78;;;10.30;99.90;;;;;;5035075;28;20534;-69
2023/04/23 05:19:50;;;;;;;118.45;58.60;;;10.50;99.90;;;;;;5035313;28;20467;-67
2023/04/23 05:22:17;;;;;;;111.10;56.25;;;10.50;99.90;;;;;;5035420;28;20064;-67
2023/04/23 05:24:44;;;;;;;108.80;55.72;;;10.50;99.90;;;;;;5035456;28;20324;-67
2023/04/23 05:27:10;;;;;;;96.68;51.97;;;10.50;99.90;;;;;;5035028;28;20029;-67
2023/04/23 05:29:35;;;;;;;89.85;49.42;;;10.50;99.90;;;;;;5034972;28;20079;-67
2023/04/23 05:32:01;;;;;;;90.68;49.65;;;10.60;99.90;;;;;;5034648;28;20454;-68
2023/04/23 05:34:26;;;;;;;80.57;47.55;;;11.00;99.90;;;;;;5034848;28;20040;-67
2023/04/23 05:36:52;;;;;;;75.05;43.30;;;11.40;99.90;;;;;;5035039;28;20044;-69
2023/04/23 05:39:17;;;;;;;70.57;42.08;;;11.50;99.90;;;;;;5034659;28;20025;-68
2023/04/23 05:41:43;;;;;;;65.82;40.67;;;11.50;99.90;;;;;;5034245;28;20132;-69
2023/04/23 05:44:08;;;;;;;63.28;39.05;;;11.40;99.90;;;;;;5035145;28;20044;-67
2023/04/23 05:46:34;;;;;;;65.07;37.83;;;11.40;99.90;;;;;;5034176;28;20052;-67
2023/04/23 05:48:59;;;;;;;66.93;39.60;;;11.40;99.90;;;;;;5034438;28;20034;-67
2023/04/23 05:51:26;;;;;;;67.88;40.53;;;11.40;99.90;;;;;;5034986;28;20128;-67
2023/04/23 05:53:51;;;;;;;61.88;39.17;;;11.50;99.90;;;;;;5034474;28;20022;-67
2023/04/23 05:56:17;;;;;;;60.22;39.10;;;11.50;99.90;;;;;;5034212;28;20034;-67
2023/04/23 05:58:42;;;;;;;53.28;34.67;;;11.70;99.90;;;;;;5034486;28;20078;-68
2023/04/23 06:01:08;;;;;;;55.65;34.05;;;12.20;99.90;;;;;;5033700;28;20025;-68
2023/04/23 06:03:35;;;;;;;46.90;32.05;;;12.70;29.80;;;;;;5034490;28;20025;-68
2023/04/23 06:06:01;;;;;;;45.25;29.90;;;13.20;38.20;;;;;;5034493;28;20486;-68
2023/04/23 06:08:26;;;;;;;36.97;27.35;;;14.60;1.00;;;;;;5034703;28;20021;-67
2023/04/23 06:10:52;;;;;;;34.28;25.75;;;16.00;1.00;;;;;;5034619;28;20072;-67
2023/04/23 06:13:17;;;;;;;33.13;24.92;;;16.80;99.90;;;;;;5034201;28;20029;-67
2023/04/23 06:15:43;;;;;;;30.90;25.20;;;17.60;1.00;;;;;;5033623;28;20025;-67
2023/04/23 06:18:09;;;;;;;27.52;22.92;;;17.90;99.90;;;;;;5033663;28;20033;-68
2023/04/23 06:20:35;;;;;;;28.23;23.35;;;18.70;99.90;;;;;;5034245;28;20418;-68
2023/04/23 06:23:01;;;;;;;28.67;23.42;;;19.50;1.00;;;;;;5033368;28;20025;-68
2023/04/23 06:25:27;;;;;;;29.73;23.42;;;19.80;90.10;;;;;;5033908;28;20029;-68
2023/04/23 06:27:52;;;;;;;23.90;20.95;;;20.20;1.00;;;;;;5034309;28;20025;-68
2023/04/23 06:30:18;;;;;;;23.90;21.08;;;20.90;99.90;;;;;;5033718;28;20463;-65
2023/04/23 06:32:43;;;;;;;21.85;19.38;;;21.40;99.90;;;;;;5034383;28;20345;-65
2023/04/23 06:35:09;;;;;;;22.70;19.63;;;22.10;1.00;;;;;;5033981;28;20041;-65
2023/04/23 06:37:34;;;;;;;21.55;19.33;;;22.30;1.00;;;;;;5034251;28;20467;-66
2023/04/23 06:40:00;;;;;;;20.15;18.10;;;22.00;1.00;;;;;;5033635;28;20471;-65
2023/04/23 06:42:25;;;;;;;21.65;19.45;;;22.10;1.00;;;;;;5033157;28;20049;-65
2023/04/23 06:44:51;;;;;;;20.00;17.92;;;21.80;1.00;;;;;;5033659;28;20450;-65
2023/04/23 06:47:16;;;;;;;19.38;17.40;;;22.20;1.00;;;;;;5033670;28;20025;-66
2023/04/23 06:49:42;;;;;;;20.55;17.70;;;21.70;1.00;;;;;;5033760;28;20036;-65
2023/04/23 06:52:07;;;;;;;19.42;17.35;;;22.70;1.00;;;;;;5034189;28;20112;-65
2023/04/23 06:54:33;;;;;;;20.55;18.42;;;22.90;1.00;;;;;;5033913;28;20483;-65
2023/04/23 06:56:58;;;;;;;20.85;18.55;;;22.30;1.00;;;;;;5033934;28;20068;-65
2023/04/23 06:59:24;;;;;;;19.27;17.02;;;22.10;1.00;;;;;;5037802;28;20176;-67
2023/04/23 07:01:49;;;;;;;21.95;17.77;;;21.90;99.90;;;;;;5037936;28;20090;-65
2023/04/23 07:04:15;;;;;;;20.80;17.25;;;22.10;99.90;;;;;;5037983;28;20093;-65
2023/04/23 07:06:40;;;;;;;18.70;16.73;;;22.90;99.90;;;;;;5038011;28;20044;-67
2023/04/23 07:09:06;;;;;;;18.65;16.75;;;22.40;99.90;;;;;;5036940;28;20451;-67
2023/04/23 07:11:33;;;;;;;18.73;16.83;;;21.20;99.90;;;;;;5037778;28;20044;-67
2023/04/23 07:13:59;;;;;;;17.10;15.40;;;21.80;99.90;;;;;;5037575;28;20029;-68
2023/04/23 07:16:28;;;;;;;16.50;15.00;;;21.60;99.90;;;;;;5037408;28;20040;-68
2023/04/23 07:18:54;;;;;;;14.15;12.75;;;22.30;99.90;;;;;;5036929;28;20021;-68
2023/04/23 07:21:19;;;;;;;14.65;13.13;;;21.90;99.90;;;;;;5037691;28;20092;-67
2023/04/23 07:23:45;;;;;;;14.00;12.40;;;21.10;99.90;;;;;;5036813;28;20517;-67
2023/04/23 07:26:11;;;;;;;12.68;11.45;;;21.50;1.00;;;;;;5036992;28;20033;-67
2023/04/23 07:28:36;;;;;;;13.90;12.40;;;20.90;1.00;;;;;;5036518;28;20025;-67
2023/04/23 07:31:02;;;;;;;12.55;11.32;;;20.50;1.00;;;;;;5037413;28;20033;-67
2023/04/23 07:33:28;;;;;;;12.52;11.00;;;20.90;1.00;;;;;;5036640;28;20033;-67
2023/04/23 07:35:53;;;;;;;12.43;11.23;;;20.80;1.00;;;;;;5037601;28;20033;-67
2023/04/23 07:38:19;;;;;;;13.25;11.30;;;20.30;65.20;;;;;;5037500;28;20033;-68
2023/04/23 07:40:44;;;;;;;13.45;10.68;;;20.60;91.10;;;;;;5036976;28;20492;-67
2023/04/23 07:43:10;;;;;;;13.80;11.10;;;20.20;90.20;;;;;;5036232;28;20025;-67
2023/04/23 07:45:36;;;;;;;13.98;10.57;;;19.30;99.90;;;;;;5036955;28;20025;-67
2023/04/23 07:48:01;;;;;;;11.27;10.07;;;18.20;1.00;;;;;;5037007;28;20463;-67
2023/04/23 07:50:28;;;;;;;13.45;10.80;;;18.60;1.00;;;;;;5037247;28;20030;-67
2023/04/23 07:52:54;;;;;;;11.88;10.20;;;18.80;99.90;;;;;;5036928;28;20557;-67
2023/04/23 07:55:20;;;;;;;12.70;11.30;;;18.00;99.90;;;;;;5037120;28;20037;-67
2023/04/23 07:57:46;;;;;;;12.77;10.80;;;17.30;1.00;;;;;;5037035;28;20032;-67
2023/04/23 08:00:12;;;;;;;11.80;10.55;;;16.70;99.90;;;;;;5036923;28;20104;-67
2023/04/23 08:02:37;;;;;;;10.90;9.80;;;16.30;99.90;;;;;;5036574;28;20068;-67
2023/04/23 08:05:04;;;;;;;12.38;9.82;;;16.50;1.00;;;;;;5036483;28;20065;-67
2023/04/23 08:07:29;;;;;;;12.70;9.82;;;16.50;99.90;;;;;;5036460;28;20029;-67
2023/04/23 08:09:55;;;;;;;13.57;9.70;;;16.50;99.90;;;;;;5035799;28;20017;-67
2023/04/23 08:12:20;;;;;;;14.65;10.57;;;16.00;1.00;;;;;;5036831;28;20528;-67
2023/04/23 08:14:46;;;;;;;12.65;8.70;;;16.30;99.90;;;;;;5036816;28;20040;-67
2023/04/23 08:17:12;;;;;;;13.38;9.80;;;17.10;99.90;;;;;;5036735;28;20056;-67
2023/04/23 08:19:37;;;;;;;13.43;10.35;;;17.10;42.10;;;;;;5036124;28;20120;-67
2023/04/23 08:22:03;;;;;;;11.05;9.68;;;16.90;1.00;;;;;;5036518;28;20045;-67
2023/04/23 08:24:28;;;;;;;12.98;9.20;;;17.10;1.00;;;;;;5036414;28;20059;-67
2023/04/23 08:26:54;;;;;;;10.95;8.43;;;17.10;99.90;;;;;;5036030;28;20037;-67
2023/04/23 08:29:20;;;;;;;10.40;8.60;;;17.40;99.90;;;;;;5036012;28;20026;-67
2023/04/23 08:31:45;;;;;;;12.77;9.07;;;17.70;52.80;;;;;;5036303;28;20163;-67
2023/04/23 08:34:11;;;;;;;8.35;7.28;;;17.70;99.90;;;;;;5035942;28;20120;-67
2023/04/23 08:36:36;;;;;;;9.40;7.60;;;18.50;99.90;;;;;;5035967;28;20041;-67
2023/04/23 08:39:02;;;;;;;11.07;7.93;;;18.70;29.70;;;;;;5035912;28;20029;-67
2023/04/23 08:41:34;;;;;;;9.93;7.25;;;18.60;26.70;;;;;;5035650;28;20099;-67
2023/04/23 08:44:11;;;;;;;9.73;7.63;;;18.80;70.60;;;;;;5035740;28;20030;-67
2023/04/23 08:46:41;;;;;;;10.10;7.47;;;18.70;1.00;;;;;;5036131;28;20076;-67
2023/04/23 08:49:08;;;;;;;10.52;7.78;;;19.40;1.00;;;;;;5035949;28;20434;-67
2023/04/23 08:51:40;;;;;;;8.57;7.00;;;20.40;99.90;;;;;;5035684;28;20021;-67
2023/04/23 08:54:11;;;;;;;9.05;6.88;;;20.60;99.90;;;;;;5035590;28;20029;-67
2023/04/23 08:56:37;;;;;;;10.27;6.82;;;20.90;99.90;;;;;;5035946;28;20056;-67
2023/04/23 08:59:03;;;;;;;9.30;7.40;;;20.30;46.30;;;;;;5035794;28;20022;-67
2023/04/23 09:01:29;;;;;;;11.13;7.13;;;19.70;1.00;;;;;;5035646;28;20374;-67
2023/04/23 09:03:55;;;;;;;7.88;6.55;;;19.70;99.90;;;;;;5029524;28;20418;-67
2023/04/23 09:06:20;;;;;;;9.38;6.57;;;20.30;1.00;;;;;;5023863;28;20026;-67
2023/04/23 09:08:46;;;;;;;8.85;5.90;;;21.20;1.00;;;;;;5015303;28;20498;-67
2023/04/23 09:11:12;;;;;;;7.10;5.00;;;20.90;1.00;;;;;;5015993;28;20384;-68
2023/04/23 09:13:40;;;;;;;6.82;5.15;;;19.20;99.90;;;;;;5015539;28;20121;-67
2023/04/23 09:16:05;;;;;;;8.77;6.05;;;18.30;99.90;;;;;;5014964;28;20033;-67
2023/04/23 09:18:31;;;;;;;10.45;6.10;;;18.00;99.90;;;;;;5015853;28;20030;-67
2023/04/23 09:20:57;;;;;;;7.07;5.40;;;17.60;99.90;;;;;;5014699;28;20037;-67
2023/04/23 09:23:22;;;;;;;8.32;5.32;;;18.30;1.00;;;;;;5015061;28;20040;-67
2023/04/23 09:25:48;;;;;;;6.95;5.00;;;18.90;99.90;;;;;;5015241;28;20109;-67
2023/04/23 09:28:14;;;;;;;5.45;4.60;;;18.30;1.00;;;;;;5014899;28;20037;-67
2023/04/23 09:30:44;;;;;;;6.10;4.60;;;18.90;1.00;;;;;;5015209;28;20028;-67
2023/04/23 09:33:11;;;;;;;9.57;4.32;;;20.30;99.90;;;;;;5015589;28;20099;-67
2023/04/23 09:35:37;;;;;;;6.07;4.53;;;20.90;99.90;;;;;;5014838;28;20506;-67
2023/04/23 09:38:06;;;;;;;6.40;4.82;;;20.70;1.00;;;;;;5014841;28;20079;-67
2023/04/23 09:40:32;;;;;;;8.65;5.15;;;19.80;99.90;;;;;;5014570;28;20030;-67
2023/04/23 09:42:58;;;;;;;7.65;5.22;;;19.50;99.90;;;;;;5014867;28;20053;-67
2023/04/23 09:45:24;;;;;;;9.13;5.60;;;18.80;99.90;;;;;;5015364;28;20476;-67
2023/04/23 09:47:55;;;;;;;10.10;5.40;;;18.50;99.90;;;;;;5033161;28;20068;-67
2023/04/23 09:50:39;;;;;;;14.15;5.35;;;18.10;99.90;;;;;;5031482;28;20021;-67
2023/04/23 09:53:06;;;;;;;8.05;5.95;;;17.70;99.90;;;;;;5034551;28;20032;-67
2023/04/23 09:55:36;;;;;;;8.88;5.57;;;17.50;1.00;;;;;;5034906;28;20040;-67
2023/04/23 09:58:03;;;;;;;8.18;5.13;;;17.40;99.90;;;;;;5034709;28;20038;-67
2023/04/23 10:00:34;;;;;;;11.43;5.20;;;18.00;97.40;;;;;;5034556;28;20034;-67
2023/04/23 10:03:00;;;;;;;8.75;5.43;;;18.10;1.00;;;;;;5033791;28;20037;-68
2023/04/23 10:05:26;;;;;;;8.32;4.78;;;18.10;90.10;;;;;;5034026;28;20033;-70
2023/04/23 10:07:51;;;;;;;6.63;4.80;;;18.70;99.90;;;;;;5033262;28;20487;-68
2023/04/23 10:10:18;;;;;;;11.13;5.15;;;18.50;99.90;;;;;;5034436;28;20064;-67
2023/04/23 10:12:45;;;;;;;9.57;5.40;;;18.10;99.90;;;;;;5033930;28;20430;-67
2023/04/23 10:15:12;;;;;;;5.03;4.30;;;18.50;99.90;;;;;;5034381;28;20070;-67
2023/04/23 10:17:38;;;;;;;9.10;4.40;;;19.20;1.00;;;;;;5034593;28;20419;-67
2023/04/23 10:20:06;;;;;;;5.97;4.05;;;19.60;1.00;;;;;;5034253;28;20037;-67
2023/04/23 10:22:33;;;;;;;6.22;4.18;;;20.40;99.90;;;;;;5033774;28;20022;-67
2023/04/23 10:25:02;;;;;;;7.15;4.70;;;20.40;1.00;;;;;;5034517;28;20032;-67
2023/04/23 10:27:29;;;;;;;8.32;4.78;;;20.00;99.90;;;;;;5034254;28;20349;-67
2023/04/23 10:29:57;;;;;;;5.57;4.10;;;19.40;47.10;;;;;;5034035;28;20021;-68
2023/04/23 10:32:22;;;;;;;4.57;3.85;;;19.20;75.90;;;;;;5033541;28;20025;-67
2023/04/23 10:34:49;;;;;;;6.70;3.78;;;19.90;85.80;;;;;;5034312;28;20040;-67
2023/04/23 10:37:18;;;;;;;6.13;3.78;;;19.70;99.90;;;;;;5034267;28;20056;-67
2023/04/23 10:39:45;;;;;;;6.13;3.25;;;19.70;99.90;;;;;;5034055;28;20084;-67
2023/04/23 10:42:12;;;;;;;5.18;2.95;;;19.40;99.90;;;;;;5033236;28;20047;-67
2023/04/23 10:44:41;;;;;;;5.90;2.92;;;19.60;62.80;;;;;;5033559;28;20092;-67
2023/04/23 10:47:12;;;;;;;6.57;2.85;;;19.20;59.10;;;;;;5033796;28;20497;-67
2023/04/23 10:49:38;;;;;;;5.63;2.95;;;18.60;73.50;;;;;;5034272;28;20079;-67
2023/04/23 10:52:08;;;;;;;5.68;3.42;;;18.50;99.90;;;;;;5033937;28;20037;-67
2023/04/23 10:54:35;;;;;;;5.43;2.97;;;18.30;99.90;;;;;;5033670;28;20025;-67
2023/04/23 10:57:04;;;;;;;4.72;2.90;;;18.20;99.90;;;;;;5033641;28;20022;-67
2023/04/23 10:59:32;;;;;;;4.75;2.75;;;18.20;99.90;;;;;;5033598;28;20479;-68
2023/04/23 11:02:06;;;;;;;4.25;3.00;;;18.30;99.90;;;;;;5033432;28;20037;-67
2023/04/23 11:04:33;;;;;;;6.43;3.35;;;18.30;99.90;;;;;;5033539;28;20026;-68
2023/04/23 11:07:08;;;;;;;6.95;2.85;;;18.50;99.90;;;;;;5032967;28;20030;-69
2023/04/23 11:12:31;;;;;;;3.83;2.35;;;18.60;99.90;;;;;;5091633;28;20130;-67
2023/04/23 11:14:58;;;;;;;3.90;2.60;;;18.80;99.90;;;;;;5091772;28;20040;-67
2023/04/23 11:22:50;;;;;;;4.63;2.10;;;19.20;99.90;;;;;;5111730;27;20359;-67
2023/04/23 11:25:23;;;;;;;4.40;2.60;;;19.40;99.90;;;;;;5112101;28;20028;-67
2023/04/23 11:27:51;;;;;;;5.18;2.55;;;19.60;99.90;;;;;;5111655;28;20023;-67
2023/04/23 11:30:21;;;;;;;2.63;2.08;;;19.40;99.90;;;;;;5112077;28;20028;-67
2023/04/23 11:32:49;;;;;;;6.30;2.35;;;19.50;99.90;;;;;;5111606;28;20032;-67
2023/04/23 11:35:18;;;;;;;5.18;2.00;;;19.90;99.90;;;;;;5111284;28;20023;-67
2023/04/23 11:37:45;;;;;;;3.10;2.10;;;19.40;99.90;;;;;;5111439;28;20115;-67
2023/04/23 11:40:12;;;;;;;5.80;1.98;;;19.30;99.90;;;;;;5111913;28;20438;-66
2023/04/23 11:42:48;;;;;;;5.72;2.50;;;19.00;99.90;;;;;;5111071;28;20020;-67
2023/04/23 11:45:17;;;;;;;3.78;2.20;;;18.80;99.90;;;;;;5111227;28;20024;-67
2023/04/23 11:47:44;;;;;;;3.50;2.13;;;18.80;99.90;;;;;;5111345;28;20016;-67
2023/04/23 11:50:15;;;;;;;4.13;1.95;;;18.70;99.90;;;;;;5111736;28;20444;-67
2023/04/23 11:52:42;;;;;;;2.88;2.08;;;18.90;99.90;;;;;;5110732;28;20043;-67
2023/04/23 11:55:08;;;;;;;5.50;1.98;;;19.10;99.90;;;;;;5111597;28;20028;-67
2023/04/23 11:57:39;;;;;;;4.10;2.30;;;19.00;99.90;;;;;;5110784;28;20024;-67
2023/04/23 12:00:17;;;;;;;3.08;2.30;;;19.00;99.90;;;;;;5110894;28;20028;-67
2023/04/23 12:03:00;;;;;;;3.70;2.15;;;19.10;99.90;;;;;;5110816;28;20351;-67
2023/04/23 12:05:33;;;;;;;4.30;2.20;;;19.10;99.90;;;;;;5110708;28;20114;-67
2023/04/23 12:08:19;;;;;;;3.88;2.10;;;19.40;99.90;;;;;;5111361;28;20473;-67
2023/04/23 12:10:48;;;;;;;4.93;2.05;;;19.60;99.90;;;;;;5110476;28;20504;-67
2023/04/23 12:13:20;;;;;;;3.47;1.98;;;19.30;99.90;;;;;;5110923;28;20496;-67
2023/04/23 12:15:49;;;;;;;2.70;1.80;;;19.40;99.90;;;;;;5111081;28;20408;-67
2023/04/23 12:18:15;;;;;;;2.55;1.90;;;19.60;99.90;;;;;;5110719;28;20024;-67
2023/04/23 12:20:41;;;;;;;2.88;1.88;;;19.50;73.30;;;;;;5110739;28;20039;-67
2023/04/23 12:23:07;;;;;;;4.32;2.35;;;19.50;1.00;;;;;;5110731;28;20028;-67
2023/04/23 12:25:33;;;;;;;3.53;2.00;;;19.60;1.00;;;;;;5110651;28;20060;-67
2023/04/23 12:27:59;;;;;;;4.32;2.10;;;19.70;18.10;;;;;;5110759;28;20031;-67
2023/04/23 12:30:29;;;;;;;5.10;1.80;;;19.80;51.60;;;;;;5110625;28;20060;-67
2023/04/23 12:33:03;;;;;;;3.95;1.52;;;19.80;1.00;;;;;;5104199;28;20016;-67
2023/04/23 12:35:48;;;;;;;2.58;1.70;;;19.70;99.90;;;;;;5096726;28;20023;-67
2023/04/23 12:40:59;;;;;;;4.63;1.98;;;19.60;99.90;;;;;;5091608;28;20687;-68
2023/04/23 12:43:25;;;;;;;3.30;2.10;;;19.40;99.90;;;;;;5091806;28;20090;-68